createdAt,value
2023-03-13T00:03:17.383Z,68.57
2023-03-13T00:07:17.530Z,68.52
2023-03-13T00:11:17.609Z,68.99
2023-03-13T00:15:17.800Z,68.05
2023-03-13T00:19:17.941Z,68.26
2023-03-13T00:23:18.079Z,67.56
2023-03-13T00:27:18.168Z,67.76
2023-03-13T00:31:18.451Z,68.63
2023-03-13T00:35:18.367Z,67.48
2023-03-13T00:39:18.477Z,67.67
2023-03-13T00:43:18.550Z,67.40
2023-03-13T00:47:18.680Z,67.20
2023-03-13T00:51:18.818Z,67.86
2023-03-13T00:55:18.974Z,67.95
2023-03-13T00:59:19.199Z,68.99
2023-03-13T01:03:19.387Z,68.55
2023-03-13T01:07:19.422Z,68.84
2023-03-13T01:11:19.508Z,66.81
2023-03-13T01:15:19.751Z,65.77
2023-03-13T01:19:19.798Z,66.91
2023-03-13T01:23:19.900Z,66.47
2023-03-13T01:27:20.057Z,66.23
2023-03-13T01:31:20.313Z,65.73
2023-03-13T01:35:20.473Z,67.00
2023-03-13T01:39:20.548Z,68.48
2023-03-13T01:43:27.455Z,67.50
2023-03-13T01:47:21.587Z,67.24
2023-03-13T01:51:20.598Z,67.86
2023-03-13T01:55:20.585Z,69.38
2023-03-13T01:59:20.662Z,68.60
2023-03-13T02:03:20.831Z,68.78
2023-03-13T02:07:20.902Z,71.06
2023-03-13T02:11:21.017Z,71.96
2023-03-13T02:15:21.117Z,72.19
2023-03-13T02:19:21.203Z,72.72
2023-03-13T02:23:21.269Z,71.98
2023-03-13T02:27:21.486Z,71.77
2023-03-13T02:31:21.693Z,71.56
2023-03-13T02:35:21.720Z,71.68
2023-03-13T02:39:21.872Z,71.30
2023-03-13T02:43:21.995Z,71.78
2023-03-13T02:47:22.116Z,71.28
2023-03-13T02:51:22.282Z,73.97
2023-03-13T02:55:22.456Z,73.39
2023-03-13T02:59:22.537Z,70.98
2023-03-13T03:03:22.586Z,70.73
2023-03-13T03:07:22.754Z,70.57
2023-03-13T03:11:22.839Z,70.65
2023-03-13T03:15:23.017Z,71.56
2023-03-13T03:19:23.138Z,71.50
2023-03-13T03:23:23.259Z,71.93
2023-03-13T03:27:23.414Z,70.98
2023-03-13T03:31:23.520Z,71.14
2023-03-13T03:35:23.674Z,70.64
2023-03-13T03:39:23.803Z,70.65
2023-03-13T03:43:23.863Z,71.87
2023-03-13T03:47:24.077Z,70.74
2023-03-13T03:51:24.109Z,70.49
2023-03-13T03:55:24.192Z,70.00
2023-03-13T03:59:24.361Z,68.53
2023-03-13T04:03:24.532Z,67.44
2023-03-13T04:07:24.586Z,68.36
2023-03-13T04:11:24.781Z,69.05
2023-03-13T04:15:24.915Z,69.10
2023-03-13T04:19:25.039Z,68.24
2023-03-13T04:23:25.160Z,69.28
2023-03-13T04:27:25.289Z,69.65
2023-03-13T04:31:25.417Z,69.01
2023-03-13T04:35:25.598Z,68.37
2023-03-13T04:39:25.662Z,68.36
2023-03-13T04:43:25.760Z,67.57
2023-03-13T04:47:25.890Z,67.71
2023-03-13T04:51:26.046Z,66.98
2023-03-13T04:55:26.204Z,66.20
2023-03-13T04:59:26.351Z,67.36
2023-03-13T05:03:26.486Z,66.51
2023-03-13T05:07:26.627Z,66.51
2023-03-13T05:11:26.689Z,67.39
2023-03-13T05:15:26.837Z,68.91
2023-03-13T05:19:26.966Z,67.66
2023-03-13T05:23:27.092Z,67.92
2023-03-13T05:27:27.153Z,67.37
2023-03-13T05:31:27.408Z,67.17
2023-03-13T05:35:27.516Z,66.31
2023-03-13T05:39:27.499Z,66.87
2023-03-13T05:43:27.583Z,66.63
2023-03-13T05:47:27.677Z,66.85
2023-03-13T05:51:27.845Z,67.90
2023-03-13T05:55:28.015Z,67.38
2023-03-13T05:59:28.140Z,66.35
2023-03-13T06:03:28.388Z,65.59
2023-03-13T06:07:28.403Z,65.35
2023-03-13T06:11:28.497Z,66.38
2023-03-13T06:15:28.647Z,66.64
2023-03-13T06:19:28.743Z,66.47
2023-03-13T06:23:28.893Z,66.33
2023-03-13T06:27:28.974Z,65.07
2023-03-13T06:31:29.245Z,66.36
2023-03-13T06:35:29.821Z,66.08
2023-03-13T06:39:29.739Z,65.46
2023-03-13T06:43:29.799Z,65.25
2023-03-13T06:47:29.580Z,64.56
2023-03-13T06:51:29.730Z,63.93
2023-03-13T06:55:29.925Z,63.47
2023-03-13T06:59:30.241Z,63.37
2023-03-13T07:03:30.371Z,65.08
2023-03-13T07:07:32.204Z,64.54
2023-03-13T07:11:30.546Z,63.62
2023-03-13T07:15:30.655Z,62.99
2023-03-13T07:19:30.702Z,62.84
2023-03-13T07:23:30.834Z,62.98
2023-03-13T07:27:31.248Z,63.13
2023-03-13T07:31:31.151Z,63.20
2023-03-13T07:35:31.232Z,63.49
2023-03-13T07:39:31.367Z,63.10
2023-03-13T07:43:31.792Z,62.22
2023-03-13T07:47:31.784Z,62.73
2023-03-13T07:51:42.898Z,62.10
2023-03-13T07:55:32.793Z,61.65
2023-03-13T07:59:31.970Z,61.70
2023-03-13T08:03:32.179Z,62.06
2023-03-13T08:07:32.213Z,62.87
2023-03-13T08:11:32.415Z,63.49
2023-03-13T08:15:32.766Z,63.22
2023-03-13T08:19:32.766Z,62.56
2023-03-13T08:23:32.653Z,62.43
2023-03-13T08:27:32.779Z,62.35
2023-03-13T08:31:32.833Z,61.78
2023-03-13T08:35:33.322Z,60.67
2023-03-13T08:39:33.260Z,60.46
2023-03-13T08:43:33.296Z,60.19
2023-03-13T08:47:33.423Z,58.91
2023-03-13T08:51:33.755Z,59.58
2023-03-13T08:55:33.597Z,59.30
2023-03-13T08:59:33.727Z,58.77
2023-03-13T09:03:33.992Z,58.51
2023-03-13T09:07:33.994Z,59.40
2023-03-13T09:11:34.151Z,60.04
2023-03-13T09:15:34.404Z,60.68
2023-03-13T09:19:34.413Z,60.49
2023-03-13T09:23:34.529Z,60.62
2023-03-13T09:27:34.798Z,60.24
2023-03-13T09:31:34.817Z,60.86
2023-03-13T09:35:34.985Z,58.63
2023-03-13T09:39:35.045Z,57.63
2023-03-13T09:43:35.207Z,56.29
2023-03-13T09:47:35.347Z,55.53
2023-03-13T09:51:35.794Z,56.37
2023-03-13T09:55:35.578Z,56.52
2023-03-13T09:59:35.694Z,56.46
2023-03-13T10:03:36.304Z,56.15
2023-03-13T10:07:35.908Z,55.25
2023-03-13T10:11:36.023Z,53.68
2023-03-13T10:15:36.126Z,51.86
2023-03-13T10:19:36.287Z,50.20
2023-03-13T10:23:36.352Z,48.36
2023-03-13T10:27:36.461Z,48.10
2023-03-13T10:31:36.723Z,49.04
2023-03-13T10:35:36.783Z,46.64
2023-03-13T10:39:36.834Z,46.89
2023-03-13T10:43:37.007Z,46.10
2023-03-13T10:47:37.306Z,47.43
2023-03-13T10:51:37.338Z,46.55
2023-03-13T10:55:37.375Z,46.14
2023-03-13T10:59:37.474Z,44.39
2023-03-13T11:03:37.586Z,44.19
2023-03-13T11:07:37.678Z,42.80
2023-03-13T11:11:37.798Z,40.49
2023-03-13T11:15:37.873Z,41.18
2023-03-13T11:19:38.236Z,39.80
2023-03-13T11:23:38.107Z,39.89
2023-03-13T11:27:38.413Z,38.73
2023-03-13T11:31:38.941Z,37.06
2023-03-13T11:35:38.444Z,37.13
2023-03-13T11:39:38.569Z,35.19
2023-03-13T11:43:40.892Z,36.39
2023-03-13T11:47:38.624Z,33.40
2023-03-13T11:51:38.820Z,32.80
2023-03-13T11:55:38.487Z,30.29
2023-03-13T11:59:38.487Z,28.98
2023-03-13T12:03:38.526Z,28.16
2023-03-13T12:07:38.450Z,24.99
2023-03-13T12:11:38.354Z,24.47
2023-03-13T12:15:38.343Z,24.98
2023-03-13T12:19:38.309Z,23.78
2023-03-13T12:23:38.277Z,27.29
2023-03-13T12:27:38.477Z,22.88
2023-03-13T12:31:38.230Z,22.35
2023-03-13T12:35:38.330Z,25.42
2023-03-13T12:39:38.428Z,23.93
2023-03-13T12:43:38.614Z,23.76
2023-03-13T12:47:38.697Z,22.96
2023-03-13T12:51:38.816Z,22.73
2023-03-13T12:55:38.950Z,22.57
2023-03-13T12:59:39.122Z,23.37
2023-03-13T13:03:39.262Z,23.78
2023-03-13T13:07:39.347Z,23.49
2023-03-13T13:11:39.549Z,23.81
2023-03-13T13:15:39.660Z,23.65
2023-03-13T13:19:39.693Z,23.54
2023-03-13T13:23:39.837Z,23.94
2023-03-13T13:27:39.997Z,23.23
2023-03-13T13:31:40.206Z,23.46
2023-03-13T13:35:40.264Z,23.39
2023-03-13T13:39:40.313Z,22.67
2023-03-13T13:43:40.449Z,22.26
2023-03-13T13:47:40.545Z,23.06
2023-03-13T13:51:40.762Z,22.61
2023-03-13T13:55:40.857Z,22.20
2023-03-13T13:59:41.000Z,22.57
2023-03-13T14:03:41.080Z,21.69
2023-03-13T14:07:41.248Z,21.98
2023-03-13T14:11:41.325Z,21.95
2023-03-13T14:15:41.455Z,21.66
2023-03-13T14:19:41.653Z,22.16
2023-03-13T14:23:41.686Z,21.78
2023-03-13T14:27:41.798Z,21.72
2023-03-13T14:31:41.971Z,20.65
2023-03-13T14:35:42.421Z,20.81
2023-03-13T14:39:42.176Z,22.57
2023-03-13T14:43:42.328Z,21.86
2023-03-13T14:47:42.871Z,22.28
2023-03-13T14:51:42.553Z,22.21
2023-03-13T14:55:42.672Z,21.64
2023-03-13T14:59:42.774Z,21.80
2023-03-13T15:03:44.912Z,22.15
2023-03-13T15:07:43.023Z,21.91
2023-03-13T15:11:43.119Z,22.24
2023-03-13T15:15:43.280Z,22.88
2023-03-13T15:19:43.369Z,23.23
2023-03-13T15:23:43.511Z,23.56
2023-03-13T15:27:43.648Z,23.00
2023-03-13T15:31:43.801Z,22.96
2023-03-13T15:35:44.064Z,23.23
2023-03-13T15:39:43.984Z,23.64
2023-03-13T15:43:44.147Z,24.46
2023-03-13T15:47:44.301Z,24.53
2023-03-13T15:51:44.436Z,25.30
2023-03-13T15:55:44.585Z,25.22
2023-03-13T15:59:44.698Z,25.12
2023-03-13T16:03:44.802Z,25.63
2023-03-13T16:07:44.915Z,26.64
2023-03-13T16:11:45.038Z,26.71
2023-03-13T16:15:45.165Z,27.12
2023-03-13T16:19:45.264Z,26.96
2023-03-13T16:23:45.411Z,27.37
2023-03-13T16:27:45.479Z,27.40
2023-03-13T16:31:45.585Z,27.58
2023-03-13T16:35:45.700Z,27.79
2023-03-13T16:39:45.807Z,28.34
2023-03-13T16:43:45.896Z,28.95
2023-03-13T16:47:46.057Z,29.21
2023-03-13T16:51:46.196Z,29.62
2023-03-13T16:55:46.261Z,29.86
2023-03-13T16:59:46.380Z,30.05
2023-03-13T17:03:46.462Z,29.96
2023-03-13T17:07:46.525Z,30.23
2023-03-13T17:11:46.655Z,29.56
2023-03-13T17:15:46.818Z,30.25
2023-03-13T17:19:46.918Z,31.21
2023-03-13T17:23:46.987Z,30.98
2023-03-13T17:27:47.183Z,30.81
2023-03-13T17:31:47.209Z,30.88
2023-03-13T17:35:47.454Z,31.02
2023-03-13T17:39:47.491Z,31.69
2023-03-13T17:43:47.660Z,31.76
2023-03-13T17:47:47.744Z,32.01
2023-03-13T17:51:47.790Z,32.46
2023-03-13T17:55:47.973Z,33.11
2023-03-13T17:59:48.077Z,32.68
2023-03-13T18:03:48.193Z,32.57
2023-03-13T18:07:48.289Z,32.95
2023-03-13T18:11:48.355Z,33.15
2023-03-13T18:15:48.503Z,33.25
2023-03-13T18:19:48.609Z,33.47
2023-03-13T18:23:48.733Z,33.27
2023-03-13T18:27:48.876Z,33.83
2023-03-13T18:31:49.048Z,34.31
2023-03-13T18:35:49.267Z,34.40
2023-03-13T18:39:49.256Z,34.11
2023-03-13T18:43:49.378Z,34.45
2023-03-13T18:47:49.507Z,34.83
2023-03-13T18:51:49.594Z,34.87
2023-03-13T18:55:49.709Z,35.02
2023-03-13T18:59:49.816Z,34.36
2023-03-13T19:03:49.870Z,34.85
2023-03-13T19:07:49.988Z,35.02
2023-03-13T19:11:50.082Z,35.64
2023-03-13T19:15:50.224Z,35.82
2023-03-13T19:19:50.340Z,35.20
2023-03-13T19:23:50.436Z,35.49
2023-03-13T19:27:50.639Z,35.57
2023-03-13T19:31:50.764Z,35.77
2023-03-13T19:35:50.900Z,36.15
2023-03-13T19:39:50.919Z,36.02
2023-03-13T19:43:51.042Z,36.00
2023-03-13T19:47:51.114Z,36.61
2023-03-13T19:51:51.238Z,36.63
2023-03-13T19:55:51.417Z,36.75
2023-03-13T19:59:51.451Z,37.20
2023-03-13T20:03:51.576Z,37.03
2023-03-13T20:07:51.659Z,37.54
2023-03-13T20:11:51.849Z,36.88
2023-03-13T20:15:51.868Z,36.87
2023-03-13T20:19:51.988Z,37.75
2023-03-13T20:23:52.114Z,37.63
2023-03-13T20:27:52.234Z,37.14
2023-03-13T20:31:53.001Z,38.41
2023-03-13T20:35:52.454Z,37.53
2023-03-13T20:39:52.509Z,38.81
2023-03-13T20:43:52.634Z,39.05
2023-03-13T20:47:52.709Z,38.29
2023-03-13T20:51:52.948Z,38.25
2023-03-13T20:55:52.974Z,39.41
2023-03-13T20:59:53.088Z,39.52
2023-03-13T21:03:53.196Z,38.82
2023-03-13T21:07:53.292Z,39.20
2023-03-13T21:11:53.457Z,38.59
2023-03-13T21:15:53.601Z,38.35
2023-03-13T21:19:53.684Z,38.46
2023-03-13T21:23:53.772Z,38.32
2023-03-13T21:27:53.857Z,38.28
2023-03-13T21:31:54.089Z,38.39
2023-03-13T21:35:54.091Z,38.50
2023-03-13T21:39:54.216Z,38.68
2023-03-13T21:43:54.365Z,38.55
2023-03-13T21:47:54.407Z,39.01
2023-03-13T21:51:54.541Z,39.33
2023-03-13T21:55:54.621Z,39.73
2023-03-13T21:59:54.750Z,40.26
2023-03-13T22:03:54.866Z,39.74
2023-03-13T22:07:54.902Z,39.15
2023-03-13T22:11:54.994Z,39.58
2023-03-13T22:15:55.113Z,38.85
2023-03-13T22:19:55.215Z,39.20
2023-03-13T22:23:55.342Z,39.71
2023-03-13T22:27:55.471Z,40.08
2023-03-13T22:31:55.589Z,39.39
2023-03-13T22:35:55.713Z,39.46
2023-03-13T22:39:55.744Z,39.26
2023-03-13T22:43:55.867Z,39.64
2023-03-13T22:47:55.978Z,38.34
2023-03-13T22:51:56.095Z,38.87
2023-03-13T22:55:56.223Z,39.54
2023-03-13T22:59:56.342Z,38.99
2023-03-13T23:03:56.417Z,38.56
2023-03-13T23:07:56.544Z,38.41
2023-03-13T23:11:56.678Z,38.54
2023-03-13T23:15:56.805Z,38.79
2023-03-13T23:19:56.918Z,38.35
2023-03-13T23:23:57.069Z,38.98
2023-03-13T23:27:57.237Z,39.01
2023-03-13T23:31:57.320Z,38.58
2023-03-13T23:35:57.494Z,39.73
2023-03-13T23:39:57.573Z,39.57
2023-03-13T23:43:57.685Z,39.41
2023-03-13T23:47:57.888Z,39.46
2023-03-13T23:51:57.837Z,38.98
2023-03-13T23:55:57.955Z,39.01
2023-03-13T23:59:58.099Z,39.72
